Time;durP1;ratioP1;P1;durP2;ratioP2;P2;SDS_P1;SDS_P2;PMS_P1;PMS_P2;Temp;Humidity;BMP_temperature;BMP_pressure;BME280_temperature;BME280_humidity;BME280_pressure;Samples;Min_cycle;Max_cycle;Signal;HPM_P1;HPM_P2
2024/03/16 00:00:40;;;;;;;9.38;4.20;;;12.90;99.90;;;;;;5066098;28;20024;-68
2024/03/16 00:03:05;;;;;;;7.60;4.25;;;12.80;99.90;;;;;;5085167;28;20039;-69
2024/03/16 00:05:31;;;;;;;11.55;4.22;;;12.80;99.90;;;;;;5067828;28;20029;-68
2024/03/16 00:07:56;;;;;;;8.48;4.15;;;12.80;99.90;;;;;;5083152;28;20459;-68
2024/03/16 00:10:22;;;;;;;19.77;4.63;;;12.80;99.90;;;;;;5065091;28;20076;-68
2024/03/16 00:12:48;;;;;;;9.88;4.10;;;12.90;99.90;;;;;;5077170;28;20040;-69
2024/03/16 00:15:13;;;;;;;7.80;4.28;;;12.90;99.90;;;;;;5082452;28;20378;-69
2024/03/16 00:17:39;;;;;;;7.57;3.97;;;12.80;99.90;;;;;;5086211;28;20028;-68
2024/03/16 00:20:10;;;;;;;13.95;4.30;;;12.90;99.90;;;;;;5079748;28;20036;-69
2024/03/16 00:22:37;;;;;;;9.00;3.90;;;12.90;99.90;;;;;;5085900;28;20016;-68
2024/03/16 00:25:04;;;;;;;9.10;3.83;;;12.90;99.90;;;;;;5078859;28;20021;-69
2024/03/16 00:27:29;;;;;;;8.25;4.15;;;12.90;99.90;;;;;;5081166;28;20060;-69
2024/03/16 00:29:55;;;;;;;10.52;4.80;;;12.90;99.90;;;;;;5068836;28;20511;-68
2024/03/16 00:32:21;;;;;;;9.35;4.15;;;12.90;99.90;;;;;;5073592;28;20028;-69
2024/03/16 00:34:47;;;;;;;11.20;4.03;;;12.90;99.90;;;;;;5056401;28;20082;-68
2024/03/16 00:37:13;;;;;;;9.68;3.67;;;12.90;99.90;;;;;;5085986;28;20024;-69
2024/03/16 00:39:39;;;;;;;11.00;4.22;;;12.90;99.90;;;;;;5075511;28;20067;-68
2024/03/16 00:42:05;;;;;;;13.95;4.60;;;12.90;99.90;;;;;;5077938;28;20032;-69
2024/03/16 00:44:31;;;;;;;16.33;4.90;;;12.90;99.90;;;;;;5066210;28;20664;-69
2024/03/16 00:46:57;;;;;;;14.35;4.05;;;12.80;99.90;;;;;;5072719;28;20063;-69
2024/03/16 00:49:23;;;;;;;13.05;4.38;;;12.90;99.90;;;;;;5085034;28;20113;-69
2024/03/16 00:51:50;;;;;;;10.10;3.85;;;12.90;99.90;;;;;;5083707;28;20040;-69
2024/03/16 00:54:15;;;;;;;13.18;4.10;;;12.90;99.90;;;;;;5076626;28;20040;-69
2024/03/16 00:56:43;;;;;;;9.65;4.03;;;12.90;99.90;;;;;;5077337;28;20039;-68
2024/03/16 00:59:09;;;;;;;15.57;4.97;;;12.90;99.90;;;;;;5083769;28;20024;-68
2024/03/16 01:01:34;;;;;;;6.65;3.53;;;12.80;99.90;;;;;;5080087;28;20039;-68
2024/03/16 01:04:01;;;;;;;10.93;4.70;;;12.80;99.90;;;;;;5078703;28;20028;-68
2024/03/16 01:06:26;;;;;;;15.20;4.80;;;12.80;99.90;;;;;;5078786;28;20109;-68
2024/03/16 01:08:52;;;;;;;9.13;4.32;;;12.80;99.90;;;;;;5055478;28;20048;-69
2024/03/16 01:11:18;;;;;;;12.60;4.70;;;12.70;99.90;;;;;;5077792;28;20493;-68
2024/03/16 01:13:44;;;;;;;13.93;5.40;;;12.80;99.90;;;;;;5069301;28;20102;-68
2024/03/16 01:16:10;;;;;;;12.98;5.53;;;12.80;99.90;;;;;;5076528;28;20033;-68
2024/03/16 01:18:35;;;;;;;13.40;5.90;;;12.70;99.90;;;;;;5076612;28;20624;-68
2024/03/16 01:21:05;;;;;;;14.38;5.55;;;12.60;99.90;;;;;;5062098;28;20029;-68
2024/03/16 01:23:34;;;;;;;17.80;5.53;;;12.70;99.90;;;;;;5079689;28;20032;-67
2024/03/16 01:26:00;;;;;;;15.80;5.93;;;12.70;99.90;;;;;;5065639;28;20043;-68
2024/03/16 01:28:26;;;;;;;12.32;5.80;;;12.70;99.90;;;;;;5080590;28;20032;-68
2024/03/16 01:30:52;;;;;;;16.98;5.75;;;12.60;99.90;;;;;;5075943;28;20584;-68
2024/03/16 01:33:18;;;;;;;17.58;5.70;;;12.60;99.90;;;;;;5082646;28;20038;-68
2024/03/16 01:35:44;;;;;;;17.50;6.43;;;12.70;99.90;;;;;;5076417;28;20500;-68
2024/03/16 01:38:09;;;;;;;11.27;6.47;;;12.60;99.90;;;;;;5077341;28;20031;-69
2024/03/16 01:40:35;;;;;;;11.02;5.30;;;12.70;99.90;;;;;;5076029;28;20032;-68
2024/03/16 01:43:01;;;;;;;14.63;5.55;;;12.70;99.90;;;;;;5074821;28;20016;-68
2024/03/16 01:45:27;;;;;;;14.10;5.22;;;12.70;99.90;;;;;;5076691;28;20453;-69
2024/03/16 01:47:54;;;;;;;13.55;5.15;;;12.70;99.90;;;;;;5077031;28;20131;-68
2024/03/16 01:50:20;;;;;;;19.97;5.30;;;12.70;99.90;;;;;;5074800;28;20032;-69
2024/03/16 01:52:47;;;;;;;12.45;4.20;;;12.70;99.90;;;;;;5056464;28;20031;-68
2024/03/16 01:55:13;;;;;;;16.27;5.57;;;12.70;99.90;;;;;;5079477;28;20060;-69
2024/03/16 01:57:38;;;;;;;16.85;4.25;;;12.70;99.90;;;;;;5057414;28;20037;-69
2024/03/16 02:00:05;;;;;;;18.23;4.57;;;12.80;99.90;;;;;;5074761;28;20090;-68
2024/03/16 02:02:38;;;;;;;8.45;4.13;;;12.70;99.90;;;;;;5072311;28;20020;-69
2024/03/16 02:05:08;;;;;;;14.98;4.35;;;12.70;99.90;;;;;;5073918;28;20044;-69
2024/03/16 02:07:39;;;;;;;12.10;4.03;;;12.80;99.90;;;;;;5074207;28;20420;-68
2024/03/16 02:10:08;;;;;;;12.77;3.75;;;12.80;99.90;;;;;;5068397;28;20020;-70
2024/03/16 02:12:34;;;;;;;9.52;3.42;;;12.70;99.90;;;;;;5070649;28;20123;-69
2024/03/16 02:15:00;;;;;;;14.10;3.47;;;12.70;99.90;;;;;;5069992;28;20048;-69
2024/03/16 02:17:26;;;;;;;11.52;4.03;;;12.80;99.90;;;;;;5068198;28;20043;-69
2024/03/16 02:19:52;;;;;;;9.15;3.50;;;12.70;99.90;;;;;;5057281;28;20033;-69
2024/03/16 02:22:19;;;;;;;10.35;3.28;;;12.70;99.90;;;;;;5071965;28;20507;-69
2024/03/16 02:24:47;;;;;;;8.27;3.63;;;12.70;99.90;;;;;;5061166;28;20062;-69
2024/03/16 02:27:13;;;;;;;16.65;4.30;;;12.60;99.90;;;;;;5055335;28;20036;-69
2024/03/16 02:29:39;;;;;;;14.35;3.88;;;12.70;99.90;;;;;;5058372;28;20609;-69
2024/03/16 02:32:06;;;;;;;12.80;3.70;;;12.70;99.90;;;;;;5070274;28;20037;-68
2024/03/16 02:34:36;;;;;;;13.23;3.58;;;12.70;99.90;;;;;;5070397;28;20035;-68
2024/03/16 02:37:05;;;;;;;16.23;4.75;;;12.60;99.90;;;;;;5075090;28;20033;-68
2024/03/16 02:39:35;;;;;;;11.35;4.50;;;12.60;99.90;;;;;;5070373;28;20039;-69
2024/03/16 02:42:04;;;;;;;14.25;4.05;;;12.60;99.90;;;;;;5064440;28;20040;-69
2024/03/16 02:44:30;;;;;;;8.65;3.75;;;12.60;99.90;;;;;;5062921;28;20033;-69
2024/03/16 02:46:57;;;;;;;10.93;4.88;;;12.50;99.90;;;;;;5070467;28;20558;-69
2024/03/16 02:49:23;;;;;;;13.48;5.03;;;12.50;99.90;;;;;;5074742;28;20118;-68
2024/03/16 02:51:49;;;;;;;11.30;4.63;;;12.40;99.90;;;;;;5068985;28;20040;-68
2024/03/16 02:54:16;;;;;;;14.15;5.07;;;12.50;99.90;;;;;;5065780;28;20039;-69
2024/03/16 02:56:42;;;;;;;15.13;5.97;;;12.50;99.90;;;;;;5064552;28;20126;-69
2024/03/16 02:59:08;;;;;;;13.60;5.45;;;12.40;99.90;;;;;;5066056;28;20071;-68
2024/03/16 03:01:34;;;;;;;14.57;6.20;;;12.40;99.90;;;;;;5067618;28;20119;-68
2024/03/16 03:04:01;;;;;;;15.52;5.97;;;12.30;99.90;;;;;;5070488;28;20038;-68
2024/03/16 03:06:27;;;;;;;21.83;6.03;;;12.30;99.90;;;;;;5064126;28;20424;-69
2024/03/16 03:08:53;;;;;;;18.00;6.13;;;12.30;99.90;;;;;;5067419;28;20438;-68
2024/03/16 03:11:22;;;;;;;14.13;5.55;;;12.30;99.90;;;;;;5067470;28;20116;-69
2024/03/16 03:13:48;;;;;;;15.20;6.13;;;12.30;99.90;;;;;;5065392;28;20024;-68
2024/03/16 03:16:20;;;;;;;20.42;6.90;;;12.20;99.90;;;;;;5069417;28;20032;-69
2024/03/16 03:18:47;;;;;;;27.08;7.22;;;12.20;99.90;;;;;;5077845;28;20032;-68
2024/03/16 03:21:13;;;;;;;18.00;6.50;;;12.20;99.90;;;;;;5079995;28;20040;-68
2024/03/16 03:23:39;;;;;;;17.33;7.10;;;12.20;99.90;;;;;;5076172;28;20592;-69
2024/03/16 03:26:04;;;;;;;23.15;6.45;;;12.20;99.90;;;;;;5069034;28;20154;-68
2024/03/16 03:28:30;;;;;;;17.77;6.20;;;12.20;99.90;;;;;;5064903;28;20152;-69
2024/03/16 03:30:55;;;;;;;14.60;5.88;;;12.20;99.90;;;;;;5066496;28;20405;-69
2024/03/16 03:33:21;;;;;;;11.82;5.68;;;12.20;99.90;;;;;;5066345;28;20040;-69
2024/03/16 03:35:46;;;;;;;13.35;5.82;;;12.10;99.90;;;;;;5065920;28;20650;-69
2024/03/16 03:38:12;;;;;;;22.42;6.38;;;12.10;99.90;;;;;;5072823;28;20116;-69
2024/03/16 03:40:39;;;;;;;20.13;6.45;;;12.10;99.90;;;;;;5064757;28;20040;-68
2024/03/16 03:43:06;;;;;;;18.85;6.65;;;12.10;99.90;;;;;;5052373;28;20029;-69
2024/03/16 03:49:10;;;;;;;18.48;5.60;;;12.20;99.90;;;;;;5076938;28;20040;-69
2024/03/16 03:50:57;;;;;;;17.45;6.57;;;12.20;99.90;;;;;;5057200;28;20029;-69
2024/03/16 03:53:27;;;;;;;16.33;6.68;;;12.20;99.90;;;;;;5069904;28;20061;-69
2024/03/16 03:55:53;;;;;;;20.38;6.47;;;12.20;99.90;;;;;;5066493;28;20424;-69
2024/03/16 03:58:19;;;;;;;21.42;5.72;;;12.20;99.90;;;;;;5062397;28;20540;-69
2024/03/16 04:00:47;;;;;;;13.20;5.53;;;12.10;99.90;;;;;;5075452;28;20040;-69
2024/03/16 04:03:13;;;;;;;22.35;5.85;;;12.10;99.90;;;;;;5073655;28;20140;-69
2024/03/16 04:05:38;;;;;;;19.42;6.05;;;12.20;99.90;;;;;;5074821;28;20111;-69
2024/03/16 04:08:05;;;;;;;12.73;5.38;;;12.10;99.90;;;;;;5065654;28;20560;-69
2024/03/16 04:10:32;;;;;;;13.63;6.40;;;12.20;99.90;;;;;;5075653;28;20061;-69
2024/03/16 04:12:57;;;;;;;13.63;6.20;;;12.20;99.90;;;;;;5071280;28;20305;-69
2024/03/16 04:15:23;;;;;;;11.93;5.50;;;12.10;99.90;;;;;;5069665;28;20064;-69
2024/03/16 04:17:49;;;;;;;11.95;5.53;;;12.20;99.90;;;;;;5070050;28;20678;-69
2024/03/16 04:20:14;;;;;;;12.70;5.00;;;12.10;99.90;;;;;;5076057;28;20032;-69
2024/03/16 04:22:41;;;;;;;15.30;5.30;;;12.20;99.90;;;;;;5082571;28;20031;-69
2024/03/16 04:25:09;;;;;;;16.75;6.22;;;12.20;99.90;;;;;;5077971;28;20039;-69
2024/03/16 04:27:35;;;;;;;17.27;5.80;;;12.10;99.90;;;;;;5066474;28;20104;-69
2024/03/16 04:30:00;;;;;;;11.75;5.38;;;12.10;99.90;;;;;;5071261;28;20512;-69
2024/03/16 04:32:29;;;;;;;18.52;5.38;;;12.20;99.90;;;;;;5056010;28;20622;-69
2024/03/16 04:34:54;;;;;;;11.70;4.93;;;12.10;99.90;;;;;;5072183;28;20040;-69
2024/03/16 04:37:20;;;;;;;12.57;5.32;;;12.10;99.90;;;;;;5072179;28;20036;-69
2024/03/16 04:39:47;;;;;;;11.40;5.95;;;12.10;99.90;;;;;;5071914;28;20052;-69
2024/03/16 04:42:14;;;;;;;12.70;5.65;;;12.10;99.90;;;;;;5066145;28;20413;-69
2024/03/16 04:44:40;;;;;;;18.17;6.18;;;12.20;99.90;;;;;;5071616;28;20039;-69
2024/03/16 04:47:06;;;;;;;13.77;5.38;;;12.20;99.90;;;;;;5075102;28;20033;-70
2024/03/16 04:49:32;;;;;;;15.20;5.82;;;12.10;99.90;;;;;;5074264;28;20135;-69
2024/03/16 04:51:57;;;;;;;14.85;5.88;;;12.10;99.90;;;;;;5057415;28;20107;-69
2024/03/16 04:54:23;;;;;;;12.25;6.10;;;12.10;99.90;;;;;;5070843;28;20045;-69
2024/03/16 04:56:49;;;;;;;13.02;5.43;;;12.10;99.90;;;;;;5053218;28;20131;-68
2024/03/16 04:59:15;;;;;;;12.45;5.63;;;12.10;99.90;;;;;;5049770;28;20671;-69
2024/03/16 05:01:41;;;;;;;13.52;5.63;;;12.10;99.90;;;;;;5070045;28;20523;-69
2024/03/16 05:04:10;;;;;;;12.38;6.07;;;12.10;99.90;;;;;;5072759;28;20038;-69
2024/03/16 05:06:35;;;;;;;12.27;6.18;;;12.10;99.90;;;;;;5072624;28;20036;-68
2024/03/16 05:09:09;;;;;;;16.52;6.13;;;12.10;99.90;;;;;;5069846;28;20032;-69
2024/03/16 05:11:38;;;;;;;16.15;6.53;;;12.10;99.90;;;;;;5071709;28;20048;-69
2024/03/16 05:14:07;;;;;;;18.33;6.90;;;12.10;99.90;;;;;;5049824;28;20413;-69
2024/03/16 05:16:37;;;;;;;10.20;6.20;;;12.10;99.90;;;;;;5075525;28;20028;-70
2024/03/16 05:19:04;;;;;;;18.73;6.60;;;12.10;99.90;;;;;;5070043;28;20028;-69
2024/03/16 05:21:30;;;;;;;15.65;6.68;;;12.10;99.90;;;;;;5060949;28;20028;-69
2024/03/16 05:23:57;;;;;;;16.40;7.30;;;12.10;99.90;;;;;;5069141;28;20587;-69
2024/03/16 05:26:23;;;;;;;16.20;7.20;;;12.10;99.90;;;;;;5073607;28;20024;-70
2024/03/16 05:28:49;;;;;;;14.73;7.43;;;12.10;99.90;;;;;;5066288;28;20433;-69
2024/03/16 05:31:14;;;;;;;19.00;7.60;;;12.10;99.90;;;;;;5074235;28;20028;-69
2024/03/16 05:33:40;;;;;;;11.25;7.45;;;12.10;99.90;;;;;;5070223;28;20056;-69
2024/03/16 05:36:06;;;;;;;13.57;7.78;;;12.10;99.90;;;;;;5069602;28;20136;-69
2024/03/16 05:38:32;;;;;;;23.27;7.97;;;12.10;99.90;;;;;;5076663;28;20042;-69
2024/03/16 05:40:58;;;;;;;15.45;7.95;;;12.10;99.90;;;;;;5072957;28;20031;-69
2024/03/16 05:43:25;;;;;;;18.52;8.88;;;12.10;99.90;;;;;;5073746;28;20025;-69
2024/03/16 05:45:51;;;;;;;24.00;8.32;;;12.20;99.90;;;;;;5074560;28;20025;-69
2024/03/16 05:48:17;;;;;;;20.88;8.85;;;12.10;99.90;;;;;;5072792;28;20040;-70
2024/03/16 05:50:44;;;;;;;15.88;9.02;;;12.10;99.90;;;;;;5074701;28;20151;-70
2024/03/16 05:53:12;;;;;;;16.95;8.80;;;12.10;99.90;;;;;;5067347;28;20036;-69
2024/03/16 05:55:38;;;;;;;20.80;9.73;;;12.10;99.90;;;;;;5069837;28;20481;-69
2024/03/16 05:58:04;;;;;;;20.70;9.23;;;12.10;99.90;;;;;;5068037;28;20175;-69
2024/03/16 06:00:30;;;;;;;18.92;9.60;;;12.00;99.90;;;;;;5069983;28;20048;-69
2024/03/16 06:02:56;;;;;;;19.55;10.27;;;12.00;99.90;;;;;;5073804;28;20043;-69
2024/03/16 06:05:21;;;;;;;16.80;9.50;;;12.00;99.90;;;;;;5059178;28;20131;-68
2024/03/16 06:07:47;;;;;;;19.13;9.80;;;12.00;99.90;;;;;;5063103;28;20024;-69
2024/03/16 06:10:13;;;;;;;19.98;10.15;;;12.00;99.90;;;;;;5060667;28;20035;-69
2024/03/16 06:12:39;;;;;;;17.52;10.23;;;12.00;99.90;;;;;;5052136;28;20397;-68
2024/03/16 06:15:06;;;;;;;18.10;10.02;;;12.00;99.90;;;;;;5073240;28;20031;-69
2024/03/16 06:17:33;;;;;;;25.17;10.77;;;12.00;99.90;;;;;;5062826;28;20055;-69
2024/03/16 06:19:59;;;;;;;21.23;9.47;;;11.90;99.90;;;;;;5079480;28;20111;-69
2024/03/16 06:22:25;;;;;;;17.38;9.85;;;11.90;99.90;;;;;;5078104;28;20781;-69
2024/03/16 06:24:51;;;;;;;17.48;9.63;;;11.90;99.90;;;;;;5053285;28;20040;-69
2024/03/16 06:27:21;;;;;;;17.50;9.15;;;11.90;99.90;;;;;;5057872;28;20402;-69
2024/03/16 06:29:51;;;;;;;18.50;9.25;;;11.90;99.90;;;;;;5080906;28;20036;-69
2024/03/16 06:32:20;;;;;;;17.00;9.40;;;11.90;99.90;;;;;;5073495;28;20115;-69
2024/03/16 06:34:49;;;;;;;13.98;8.93;;;12.00;99.90;;;;;;5079156;28;20024;-69
2024/03/16 06:37:16;;;;;;;14.90;9.07;;;11.90;99.90;;;;;;5078454;28;20183;-69
2024/03/16 06:39:42;;;;;;;25.35;10.07;;;11.90;99.90;;;;;;5080205;28;20033;-69
2024/03/16 06:42:10;;;;;;;20.50;9.75;;;11.90;99.90;;;;;;5085353;28;20036;-69
2024/03/16 06:44:35;;;;;;;14.90;8.98;;;11.90;99.90;;;;;;5076471;28;20040;-70
2024/03/16 06:47:01;;;;;;;17.60;9.45;;;12.00;99.90;;;;;;5070406;28;20041;-69
2024/03/16 06:49:27;;;;;;;20.85;9.20;;;11.90;99.90;;;;;;5074454;28;20032;-69
2024/03/16 06:51:52;;;;;;;25.70;9.48;;;11.90;99.90;;;;;;5075241;28;20031;-69
2024/03/16 06:54:18;;;;;;;17.88;9.65;;;11.90;99.90;;;;;;5077120;28;20116;-70
2024/03/16 06:56:44;;;;;;;15.55;9.18;;;11.90;99.90;;;;;;5078401;28;20055;-69
2024/03/16 06:59:09;;;;;;;22.58;10.00;;;11.90;99.90;;;;;;5080817;28;20048;-69
2024/03/16 07:01:35;;;;;;;16.80;9.98;;;12.00;99.90;;;;;;5080056;28;20416;-69
2024/03/16 07:04:00;;;;;;;16.50;9.50;;;12.00;99.90;;;;;;5070630;28;20546;-68
2024/03/16 07:06:26;;;;;;;15.32;9.18;;;12.00;99.90;;;;;;5052898;28;20048;-68
2024/03/16 07:08:52;;;;;;;21.17;9.65;;;12.10;99.90;;;;;;5079949;28;20553;-69
2024/03/16 07:11:19;;;;;;;18.65;9.45;;;12.00;99.90;;;;;;5066728;28;20040;-69
2024/03/16 07:13:44;;;;;;;14.95;9.50;;;12.00;99.90;;;;;;5076280;28;20424;-69
2024/03/16 07:16:14;;;;;;;19.48;11.15;;;11.90;99.90;;;;;;5076087;28;20037;-69
2024/03/16 07:18:44;;;;;;;16.80;10.30;;;11.90;99.90;;;;;;5071353;28;20091;-69
2024/03/16 07:21:10;;;;;;;19.58;10.40;;;11.90;99.90;;;;;;5057018;28;20048;-69
2024/03/16 07:23:35;;;;;;;17.73;9.15;;;12.00;99.90;;;;;;5070453;28;20429;-69
2024/03/16 07:26:02;;;;;;;15.55;8.30;;;11.90;99.90;;;;;;5078760;28;20020;-69
2024/03/16 07:28:31;;;;;;;11.35;6.93;;;11.90;99.90;;;;;;5078553;28;20029;-68
2024/03/16 07:30:56;;;;;;;11.07;6.75;;;11.90;99.90;;;;;;5079919;28;20036;-70
2024/03/16 07:33:22;;;;;;;13.73;5.30;;;11.80;99.90;;;;;;5080283;28;20060;-69
2024/03/16 07:35:51;;;;;;;7.75;5.10;;;11.70;99.90;;;;;;5083085;28;20122;-70
2024/03/16 07:38:17;;;;;;;13.25;5.28;;;11.70;99.90;;;;;;5087198;28;20024;-69
2024/03/16 07:40:43;;;;;;;6.38;3.70;;;11.60;99.90;;;;;;5064261;28;20055;-69
2024/03/16 07:43:13;;;;;;;6.38;2.88;;;11.50;99.90;;;;;;5067491;28;20035;-69
2024/03/16 07:45:42;;;;;;;4.03;2.38;;;11.40;99.90;;;;;;5083245;28;20036;-68
2024/03/16 07:48:08;;;;;;;4.03;2.50;;;11.10;99.90;;;;;;5082172;28;20700;-68
2024/03/16 07:50:35;;;;;;;2.53;2.08;;;11.10;99.90;;;;;;5077461;28;20053;-69
2024/03/16 07:53:01;;;;;;;4.28;2.15;;;11.00;99.90;;;;;;5079348;28;20035;-68
2024/03/16 07:55:29;;;;;;;5.68;2.72;;;11.00;99.90;;;;;;5078099;28;20036;-69
2024/03/16 07:57:55;;;;;;;5.07;1.95;;;10.90;99.90;;;;;;5064844;28;20036;-69
2024/03/16 08:00:20;;;;;;;3.25;2.15;;;10.80;99.90;;;;;;5066553;28;20037;-69
2024/03/16 08:02:46;;;;;;;3.50;2.25;;;10.80;99.90;;;;;;5068363;28;20036;-69
2024/03/16 08:05:11;;;;;;;5.05;2.50;;;10.80;99.90;;;;;;5066720;28;20109;-69
2024/03/16 08:07:41;;;;;;;5.55;2.65;;;10.80;99.90;;;;;;5078719;28;20081;-69
2024/03/16 08:10:09;;;;;;;5.70;2.90;;;10.70;99.90;;;;;;5058694;28;20456;-69
2024/03/16 08:12:38;;;;;;;;;;;10.60;99.90;;;;;;5042381;28;20132;-68
2024/03/16 08:15:05;;;;;;;8.40;3.20;;;10.40;99.90;;;;;;5057311;28;20487;-69
2024/03/16 08:17:31;;;;;;;7.68;3.25;;;10.40;99.90;;;;;;5065966;28;20507;-69
2024/03/16 08:19:57;;;;;;;4.40;3.03;;;10.40;99.90;;;;;;5086067;28;20047;-69
2024/03/16 08:22:23;;;;;;;5.03;3.05;;;10.40;99.90;;;;;;5075896;28;20116;-69
2024/03/16 08:24:48;;;;;;;4.93;2.78;;;10.50;99.90;;;;;;5076067;28;20101;-70
2024/03/16 08:27:14;;;;;;;4.78;3.45;;;10.50;99.90;;;;;;5078192;28;20032;-69
2024/03/16 08:29:40;;;;;;;4.60;3.03;;;10.50;99.90;;;;;;5079060;28;20040;-69
2024/03/16 08:32:09;;;;;;;6.53;3.13;;;10.50;99.90;;;;;;5080103;28;20067;-69
2024/03/16 08:34:34;;;;;;;5.65;3.25;;;10.40;99.90;;;;;;5072054;28;20081;-69
2024/03/16 08:37:00;;;;;;;6.60;2.60;;;10.30;99.90;;;;;;5083794;28;20029;-69
2024/03/16 08:39:26;;;;;;;8.38;3.10;;;10.30;99.90;;;;;;5079557;28;20068;-70
2024/03/16 08:41:52;;;;;;;7.65;3.42;;;10.30;99.90;;;;;;5083274;28;20054;-70
2024/03/16 08:44:18;;;;;;;7.50;2.65;;;10.30;99.90;;;;;;5090179;28;20440;-70
2024/03/16 08:46:44;;;;;;;6.57;2.35;;;10.30;99.90;;;;;;5077762;28;20036;-69
2024/03/16 08:49:10;;;;;;;4.78;1.98;;;10.10;99.90;;;;;;5087722;28;20020;-69
2024/03/16 08:51:36;;;;;;;3.60;1.77;;;10.10;99.90;;;;;;5081574;28;20757;-69
2024/03/16 08:54:01;;;;;;;6.88;2.10;;;10.10;99.90;;;;;;5050813;28;20132;-69
2024/03/16 08:56:28;;;;;;;3.08;1.90;;;10.00;99.90;;;;;;5045922;28;20071;-69
2024/03/16 08:58:55;;;;;;;5.28;2.35;;;10.10;99.90;;;;;;5064759;28;20033;-69
2024/03/16 09:01:21;;;;;;;5.75;2.20;;;10.00;99.90;;;;;;5058360;28;20032;-68
2024/03/16 09:03:47;;;;;;;7.85;2.58;;;10.00;99.90;;;;;;5077248;28;20053;-68
2024/03/16 09:06:13;;;;;;;3.95;1.88;;;10.00;99.90;;;;;;5076742;28;20032;-68
2024/03/16 09:08:39;;;;;;;5.13;2.83;;;10.00;99.90;;;;;;5064520;28;20032;-68
2024/03/16 09:11:04;;;;;;;7.05;2.20;;;9.90;99.90;;;;;;5079069;28;20039;-68
2024/03/16 09:13:33;;;;;;;3.45;2.00;;;9.80;99.90;;;;;;5080862;28;20617;-68
2024/03/16 09:16:00;;;;;;;10.68;2.75;;;9.80;99.90;;;;;;5065219;28;20098;-70
2024/03/16 09:18:25;;;;;;;3.63;2.33;;;9.90;99.90;;;;;;5087853;28;20044;-68
2024/03/16 09:20:51;;;;;;;4.95;2.35;;;10.00;99.90;;;;;;5081282;28;20028;-68
2024/03/16 09:23:16;;;;;;;8.43;2.97;;;10.00;99.90;;;;;;5076847;28;20523;-68
2024/03/16 09:25:42;;;;;;;11.13;2.53;;;10.00;99.90;;;;;;5073190;28;20031;-68
2024/03/16 09:28:07;;;;;;;6.43;2.15;;;10.00;99.90;;;;;;5076089;28;20042;-68
2024/03/16 09:30:33;;;;;;;4.88;2.63;;;10.00;99.90;;;;;;5059565;28;20559;-68
2024/03/16 09:32:59;;;;;;;8.98;3.03;;;10.10;99.90;;;;;;5067390;28;20560;-68
2024/03/16 09:35:26;;;;;;;6.90;2.95;;;10.10;99.90;;;;;;5064222;28;20570;-68
2024/03/16 09:37:52;;;;;;;8.00;2.88;;;10.10;99.90;;;;;;5074099;28;20031;-68
2024/03/16 09:40:18;;;;;;;9.23;3.10;;;10.20;99.90;;;;;;5082220;28;20017;-68
2024/03/16 09:42:43;;;;;;;9.40;3.85;;;10.30;99.90;;;;;;5057013;28;20056;-68
2024/03/16 09:45:18;;;;;;;8.02;3.67;;;10.30;99.90;;;;;;5067284;28;20091;-68
2024/03/16 09:47:47;;;;;;;11.15;3.85;;;10.30;99.90;;;;;;5080262;28;20050;-68
2024/03/16 09:50:16;;;;;;;6.90;2.85;;;10.20;99.90;;;;;;5081164;28;20025;-68
2024/03/16 09:52:48;;;;;;;10.32;2.00;;;10.20;99.90;;;;;;5083733;28;20031;-68
2024/03/16 09:55:14;;;;;;;4.68;1.67;;;10.00;99.90;;;;;;5083115;28;20078;-68
2024/03/16 09:57:40;;;;;;;8.15;1.75;;;10.00;99.90;;;;;;5082550;28;20032;-68
2024/03/16 10:00:08;;;;;;;12.02;1.90;;;9.90;99.90;;;;;;5083509;28;20052;-68
2024/03/16 10:02:36;;;;;;;6.60;1.77;;;9.90;99.90;;;;;;5057751;28;20039;-68
2024/03/16 10:05:04;;;;;;;6.93;1.60;;;9.90;99.90;;;;;;5078086;28;20536;-68
2024/03/16 10:07:30;;;;;;;8.30;1.90;;;9.90;99.90;;;;;;5075289;28;20143;-68
2024/03/16 10:09:56;;;;;;;6.70;1.60;;;10.10;99.90;;;;;;5057230;28;20116;-68
2024/03/16 10:12:23;;;;;;;12.15;1.52;;;10.20;99.90;;;;;;5052080;28;20029;-67
2024/03/16 10:15:19;;;;;;;10.13;1.47;;;10.30;99.90;;;;;;5054275;28;20123;-68
2024/03/16 10:17:52;;;;;;;19.85;1.77;;;10.50;99.90;;;;;;5065207;28;20151;-68
2024/03/16 10:20:18;;;;;;;10.73;1.42;;;10.60;99.90;;;;;;5072821;28;20106;-68
2024/03/16 10:22:45;;;;;;;11.00;1.35;;;10.80;99.90;;;;;;5077128;28;20493;-68
2024/03/16 10:25:12;;;;;;;15.93;1.90;;;10.80;99.90;;;;;;5076013;28;20021;-71
2024/03/16 10:27:42;;;;;;;9.32;1.58;;;10.90;99.90;;;;;;5076922;28;20056;-71
2024/03/16 10:30:13;;;;;;;7.68;1.80;;;11.10;99.90;;;;;;5079775;28;20082;-71
2024/03/16 10:32:49;;;;;;;7.97;1.20;;;11.10;99.90;;;;;;5092612;28;20028;-71
2024/03/16 10:35:16;;;;;;;6.75;1.60;;;11.10;99.90;;;;;;5075773;28;20074;-71
2024/03/16 10:37:42;;;;;;;8.77;1.23;;;10.90;99.90;;;;;;5069734;28;20033;-70
2024/03/16 10:40:21;;;;;;;8.10;1.65;;;10.80;99.90;;;;;;5073230;28;20021;-67
2024/03/16 10:42:48;;;;;;;9.75;1.35;;;10.80;99.90;;;;;;5080781;28;20417;-68
2024/03/16 10:45:17;;;;;;;7.75;1.27;;;10.50;99.90;;;;;;5058464;28;20029;-68
2024/03/16 10:47:55;;;;;;;12.98;1.67;;;10.50;99.90;;;;;;5084704;28;20079;-68
2024/03/16 10:50:24;;;;;;;7.32;1.05;;;10.40;99.90;;;;;;5073271;28;20050;-68
2024/03/16 10:52:52;;;;;;;16.10;1.52;;;10.40;99.90;;;;;;5074387;28;20057;-68
2024/03/16 10:55:23;;;;;;;9.38;1.65;;;10.30;99.90;;;;;;5072929;28;20075;-69
2024/03/16 10:57:53;;;;;;;4.57;1.33;;;10.20;99.90;;;;;;5062932;28;20068;-67
2024/03/16 11:00:37;;;;;;;9.43;1.60;;;10.10;99.90;;;;;;5075460;28;20140;-67
2024/03/16 11:03:12;;;;;;;8.48;1.33;;;10.10;99.90;;;;;;5074963;28;20036;-68
2024/03/16 11:05:40;;;;;;;7.78;1.60;;;10.00;99.90;;;;;;5081887;28;20131;-68
2024/03/16 11:08:23;;;;;;;5.13;1.42;;;10.00;99.90;;;;;;5079694;28;20451;-69
2024/03/16 11:10:49;;;;;;;9.35;1.77;;;10.00;99.90;;;;;;5080729;28;20092;-68
2024/03/16 11:13:23;;;;;;;9.55;1.23;;;10.00;99.90;;;;;;5084524;28;20059;-68
2024/03/16 11:15:50;;;;;;;9.50;1.38;;;10.10;99.90;;;;;;5058679;28;20050;-69
2024/03/16 11:18:21;;;;;;;9.98;1.20;;;10.20;99.90;;;;;;5072139;28;20040;-68
2024/03/16 11:20:50;;;;;;;4.90;1.17;;;10.10;99.90;;;;;;5041506;28;20048;-68
2024/03/16 11:23:27;;;;;;;3.80;0.90;;;10.10;99.90;;;;;;5049521;28;20429;-68
2024/03/16 11:25:54;;;;;;;10.30;1.20;;;10.00;99.90;;;;;;5082070;28;20400;-70
2024/03/16 11:28:21;;;;;;;8.50;1.17;;;10.00;99.90;;;;;;5061524;28;20029;-69
2024/03/16 11:30:47;;;;;;;4.65;1.33;;;9.90;99.90;;;;;;5061335;28;20035;-69
2024/03/16 11:33:23;;;;;;;6.93;1.60;;;9.90;99.90;;;;;;5076523;28;20123;-69
2024/03/16 11:35:50;;;;;;;13.95;2.38;;;10.00;99.90;;;;;;5066639;28;20036;-70
2024/03/16 11:38:16;;;;;;;5.85;1.42;;;10.10;99.90;;;;;;5078550;28;20046;-70
2024/03/16 11:40:44;;;;;;;7.53;1.77;;;10.20;99.90;;;;;;5075358;28;20028;-70
2024/03/16 11:43:13;;;;;;;11.30;1.65;;;10.30;99.90;;;;;;5075259;28;20054;-70
2024/03/16 11:45:40;;;;;;;9.10;1.38;;;10.30;99.90;;;;;;5080379;28;20508;-70
2024/03/16 11:48:08;;;;;;;3.85;1.30;;;10.10;99.90;;;;;;5081031;28;20039;-69
2024/03/16 11:50:36;;;;;;;4.22;1.40;;;10.20;99.90;;;;;;5062621;28;20501;-69
2024/03/16 11:53:02;;;;;;;7.88;2.20;;;10.00;99.90;;;;;;5076841;28;20090;-69
2024/03/16 11:55:32;;;;;;;11.40;1.60;;;10.10;99.70;;;;;;5080864;28;20048;-70
2024/03/16 11:58:00;;;;;;;4.25;0.85;;;10.00;99.20;;;;;;5077661;28;20040;-69
2024/03/16 12:00:28;;;;;;;3.90;0.95;;;10.00;99.80;;;;;;5079120;28;20493;-69
2024/03/16 12:02:57;;;;;;;3.47;0.93;;;10.10;99.50;;;;;;5072074;28;20420;-70
2024/03/16 12:05:23;;;;;;;5.70;0.82;;;10.10;98.70;;;;;;5074201;28;20032;-69
2024/03/16 12:07:49;;;;;;;7.18;0.93;;;10.10;98.90;;;;;;5076081;28;20036;-69
2024/03/16 12:10:15;;;;;;;7.07;1.13;;;10.20;99.20;;;;;;5079951;28;20040;-69
2024/03/16 12:12:41;;;;;;;5.82;1.00;;;10.20;98.40;;;;;;5070381;28;20032;-69
2024/03/16 12:15:17;;;;;;;8.18;1.17;;;10.20;98.80;;;;;;5081395;28;20036;-69
2024/03/16 12:17:44;;;;;;;2.70;0.93;;;10.20;98.20;;;;;;5081858;28;20036;-70
2024/03/16 12:20:11;;;;;;;10.02;1.27;;;10.20;98.60;;;;;;5080653;28;20033;-69
2024/03/16 12:22:50;;;;;;;8.07;1.70;;;10.20;99.20;;;;;;5067058;28;20098;-70
2024/03/16 12:25:16;;;;;;;2.85;1.00;;;10.20;98.90;;;;;;5076601;28;20028;-69
2024/03/16 12:27:44;;;;;;;8.88;1.30;;;10.30;99.20;;;;;;5081522;28;20033;-69
2024/03/16 12:30:12;;;;;;;4.60;1.13;;;10.40;99.50;;;;;;5075469;28;20497;-69
2024/03/16 12:32:38;;;;;;;9.35;1.70;;;10.40;98.90;;;;;;5079318;28;20112;-69
2024/03/16 12:35:04;;;;;;;6.60;1.17;;;10.40;98.90;;;;;;5079999;28;20036;-69
2024/03/16 12:37:30;;;;;;;4.78;1.10;;;10.50;98.70;;;;;;5074486;28;20787;-71
2024/03/16 12:39:57;;;;;;;4.35;0.95;;;10.40;98.50;;;;;;5061186;28;20044;-68
2024/03/16 12:42:23;;;;;;;6.25;1.20;;;10.30;98.30;;;;;;5064205;28;20460;-70